Terminal Aerodrome Forecast
Issued by NWS

Home | Current Version | Previous Version | Text Only | Print | Product List | Glossary Off
Versions: 1 2 3 4 5 6 7 8 9 10 11 12 13 14

000
FTUS42 KMHX 091127 AAC
TAFISO
TAF AMD
KISO 091127Z 0911/1012 01010KT 3SM -RA OVC006
     FM091800 34010KT P6SM VCSH OVC007
     FM092100 32010KT P6SM OVC007
     FM092300 31005KT P6SM OVC010
     FM100300 27005KT P6SM BKN015
     FM100500 27005KT P6SM BKN050
     FM100700 27010KT P6SM SCT070
      AMD LTD TO CLD VIS AND WIND=

USA.gov is the U.S. government's official web portal to all federal, state and local government web resources and services.